Time;durP1;ratioP1;P1;durP2;ratioP2;P2;SDS_P1;SDS_P2;PMS_P1;PMS_P2;Temp;Humidity;BMP_temperature;BMP_pressure;BME280_temperature;BME280_humidity;BME280_pressure;Samples;Min_cycle;Max_cycle;Signal;HPM_P1;HPM_P2
2022/06/09 00:01:58;;;;;;;;;;;17.40;85.70;;;;;;4930699;29;19993;-84
2022/06/09 00:04:27;;;;;;;;;;;17.30;85.40;;;;;;4912763;29;19945;-84
2022/06/09 00:06:56;;;;;;;;;;;17.30;85.70;;;;;;4921831;29;19929;-78
2022/06/09 00:09:27;;;;;;;;;;;17.30;86.30;;;;;;4917694;29;20367;-79
2022/06/09 00:11:54;;;;;;;;;;;17.20;85.80;;;;;;4908996;29;19923;-80
2022/06/09 00:14:21;;;;;;;;;;;17.20;85.60;;;;;;4921649;29;19929;-80
2022/06/09 00:16:47;;;;;;;;;;;17.10;85.60;;;;;;4922219;29;20033;-80
2022/06/09 00:19:16;;;;;;;;;;;17.00;87.20;;;;;;4919052;29;20013;-80
2022/06/09 00:21:43;;;;;;;;;;;17.00;86.10;;;;;;4929410;29;19962;-82
2022/06/09 00:24:10;;;;;;;;;;;16.90;86.20;;;;;;4931709;29;19914;-80
2022/06/09 00:26:37;;;;;;;;;;;16.90;86.20;;;;;;4907169;29;20395;-81
2022/06/09 00:29:05;;;;;;;;;;;16.80;86.20;;;;;;4912593;29;20018;-79
2022/06/09 00:31:32;;;;;;;;;;;16.80;86.60;;;;;;4910451;29;19923;-80
2022/06/09 00:33:59;;;;;;;;;;;16.70;87.00;;;;;;4913286;29;19950;-80
2022/06/09 00:36:26;;;;;;;;;;;16.60;86.80;;;;;;4928241;29;19969;-82
2022/06/09 00:38:54;;;;;;;;;;;16.60;88.20;;;;;;4923584;29;19945;-81
2022/06/09 00:41:21;;;;;;;;;;;16.50;88.80;;;;;;4915600;29;20606;-81
2022/06/09 00:43:48;;;;;;;;;;;16.50;88.50;;;;;;4909702;29;19985;-81
2022/06/09 00:46:15;;;;;;;;;;;16.50;88.30;;;;;;4927153;29;19922;-84
2022/06/09 00:49:08;;;;;;;;;;;16.40;88.60;;;;;;4940672;29;19927;-84
2022/06/09 00:51:35;;;;;;;;;;;16.40;88.90;;;;;;4903297;29;19923;-80
2022/06/09 00:54:07;;;;;;;;;;;16.40;88.70;;;;;;4926110;29;19930;-81
2022/06/09 00:56:35;;;;;;;;;;;16.40;89.10;;;;;;4937308;29;19933;-84
2022/06/09 00:59:02;;;;;;;;;;;16.30;89.80;;;;;;4935912;29;19933;-84
2022/06/09 01:01:29;;;;;;;;;;;16.20;90.10;;;;;;4932432;29;19982;-80
2022/06/09 01:04:05;;;;;;;;;;;16.20;90.00;;;;;;4932884;29;19927;-82
2022/06/09 01:06:34;;;;;;;;;;;16.30;90.00;;;;;;4916248;29;19962;-79
2022/06/09 01:09:01;;;;;;;;;;;16.30;89.60;;;;;;4916219;29;19926;-80
2022/06/09 01:11:28;;;;;;;;;;;16.20;89.20;;;;;;4925239;29;20291;-80
2022/06/09 01:13:56;;;;;;;;;;;16.20;88.90;;;;;;4927203;29;19929;-82
2022/06/09 01:16:25;;;;;;;;;;;16.10;89.10;;;;;;4926277;29;19922;-84
2022/06/09 01:19:11;;;;;;;;;;;16.00;88.80;;;;;;4931361;29;19922;-80
2022/06/09 01:21:50;;;;;;;;;;;16.00;89.40;;;;;;4938456;29;19923;-80
2022/06/09 01:24:22;;;;;;;;;;;15.90;89.20;;;;;;4928359;29;20395;-80
2022/06/09 01:26:56;;;;;;;;;;;15.90;89.60;;;;;;4921527;29;19930;-83
2022/06/09 01:29:30;;;;;;;;;;;15.80;89.60;;;;;;4944909;29;20275;-81
2022/06/09 01:32:16;;;;;;;;;;;15.80;90.30;;;;;;4927147;29;19923;-80
2022/06/09 01:35:15;;;;;;;;;;;15.70;90.20;;;;;;4943502;29;19913;-84
2022/06/09 01:37:47;;;;;;;;;;;15.70;90.70;;;;;;4900024;29;19944;-83
2022/06/09 01:40:16;;;;;;;;;;;15.70;91.00;;;;;;4927409;29;19933;-82
2022/06/09 01:42:44;;;;;;;;;;;15.60;90.90;;;;;;4933046;29;19923;-82
2022/06/09 01:45:17;;;;;;;;;;;15.60;91.30;;;;;;4922362;29;20282;-82
2022/06/09 01:47:47;;;;;;;;;;;15.60;91.80;;;;;;4926390;29;19927;-78
2022/06/09 01:50:37;;;;;;;;;;;15.60;91.60;;;;;;4929248;29;19927;-78
2022/06/09 01:53:10;;;;;;;;;;;15.60;91.70;;;;;;4908660;29;19926;-79
2022/06/09 01:55:41;;;;;;;;;;;15.70;91.50;;;;;;4924905;29;19929;-78
2022/06/09 01:58:10;;;;;;;;;;;15.70;91.50;;;;;;4924037;29;19995;-78
2022/06/09 02:00:38;;;;;;;;;;;15.70;91.30;;;;;;4912614;29;19930;-83
2022/06/09 02:03:10;;;;;;;;;;;15.70;91.20;;;;;;4902851;29;19923;-83
2022/06/09 02:05:39;;;;;;;;;;;15.70;91.20;;;;;;4898881;29;19923;-83
2022/06/09 02:08:07;;;;;;;;;;;15.70;91.30;;;;;;4902443;29;20405;-81
2022/06/09 02:10:39;;;;;;;;;;;15.70;91.20;;;;;;4911523;29;20018;-79
2022/06/09 02:13:08;;;;;;;;;;;15.80;91.10;;;;;;4898228;29;19928;-84
2022/06/09 02:15:38;;;;;;;;;;;15.70;91.00;;;;;;4903122;29;19927;-84
2022/06/09 02:18:07;;;;;;;;;;;15.80;91.00;;;;;;4899367;29;19934;-80
2022/06/09 02:20:35;;;;;;;;;;;15.70;90.90;;;;;;4896167;29;19928;-78
2022/06/09 02:23:02;;;;;;;;;;;15.70;91.20;;;;;;4886627;29;20014;-83
2022/06/09 02:25:29;;;;;;;;;;;15.70;91.50;;;;;;4902021;29;19930;-81
2022/06/09 02:27:56;;;;;;;;;;;15.70;91.30;;;;;;4903283;29;19995;-81
2022/06/09 02:30:23;;;;;;;;;;;15.70;91.10;;;;;;4900270;29;19923;-79
2022/06/09 02:33:10;;;;;;;;;;;15.70;91.10;;;;;;4898300;29;19927;-83
2022/06/09 02:35:43;;;;;;;;;;;15.70;91.10;;;;;;4895163;29;20428;-84
2022/06/09 02:38:10;;;;;;;;;;;15.70;91.00;;;;;;4898594;29;19933;-84
2022/06/09 02:40:37;;;;;;;;;;;15.70;90.80;;;;;;4895649;29;20287;-80
2022/06/09 02:43:04;;;;;;;;;;;15.70;90.70;;;;;;4899413;29;20002;-84
2022/06/09 02:45:33;;;;;;;;;;;15.60;90.80;;;;;;4896327;29;20298;-81
2022/06/09 02:48:01;;;;;;;;;;;15.60;90.70;;;;;;4900597;29;19923;-82
2022/06/09 02:50:28;;;;;;;;;;;15.50;90.70;;;;;;4902186;29;19951;-81
2022/06/09 02:52:55;;;;;;;;;;;15.50;90.80;;;;;;4899149;29;20291;-79
2022/06/09 02:55:22;;;;;;;;;;;15.40;91.20;;;;;;4903820;29;19927;-82
2022/06/09 02:57:49;;;;;;;;;;;15.40;91.40;;;;;;4901396;29;19923;-84
2022/06/09 03:00:16;;;;;;;;;;;15.40;91.40;;;;;;4917191;29;19927;-83
2022/06/09 03:02:50;;;;;;;;;;;15.40;91.20;;;;;;4921659;29;19969;-80
2022/06/09 03:05:16;;;;;;;;;;;15.40;91.10;;;;;;4925588;29;19923;-81
2022/06/09 03:07:43;;;;;;;;;;;15.40;90.90;;;;;;4926385;29;20434;-81
2022/06/09 03:10:10;;;;;;;;;;;15.40;90.80;;;;;;4920453;29;19933;-79
2022/06/09 03:12:38;;;;;;;;;;;15.30;90.70;;;;;;4917596;29;19923;-79
2022/06/09 03:15:08;;;;;;;;;;;15.40;90.60;;;;;;4913309;29;19929;-84
2022/06/09 03:17:35;;;;;;;;;;;15.30;90.50;;;;;;4920930;29;19929;-84
2022/06/09 03:20:06;;;;;;;;;;;15.30;90.40;;;;;;4920501;29;19923;-81
2022/06/09 03:22:33;;;;;;;;;;;15.20;90.20;;;;;;4913973;29;19966;-85
2022/06/09 03:25:00;;;;;;;;;;;15.20;90.20;;;;;;4925040;29;19927;-82
2022/06/09 03:27:28;;;;;;;;;;;15.10;90.10;;;;;;4920604;29;19922;-80
2022/06/09 03:29:55;;;;;;;;;;;15.10;90.10;;;;;;4922525;29;19936;-80
2022/06/09 03:32:22;;;;;;;;;;;15.00;90.30;;;;;;4923553;29;19945;-81
2022/06/09 03:34:49;;;;;;;;;;;15.00;90.50;;;;;;4920330;29;20001;-79
2022/06/09 03:37:16;;;;;;;;;;;14.90;90.70;;;;;;4921057;29;20009;-84
2022/06/09 03:39:43;;;;;;;;;;;14.90;91.00;;;;;;4919925;29;20355;-82
2022/06/09 03:42:10;;;;;;;;;;;14.90;91.00;;;;;;4921445;29;19927;-81
2022/06/09 03:44:37;;;;;;;;;;;15.00;91.20;;;;;;4909230;29;19923;-84
2022/06/09 03:47:04;;;;;;;;;;;15.00;90.90;;;;;;4936159;29;19937;-82
2022/06/09 03:49:30;;;;;;;;;;;15.00;90.80;;;;;;4909175;29;19934;-79
2022/06/09 03:51:57;;;;;;;;;;;15.00;90.80;;;;;;4921044;29;20015;-83
2022/06/09 03:54:24;;;;;;;;;;;15.00;90.90;;;;;;4920903;29;20349;-79
2022/06/09 03:56:51;;;;;;;;;;;15.00;91.00;;;;;;4905903;29;19929;-84
2022/06/09 03:59:18;;;;;;;;;;;15.10;90.90;;;;;;4906096;29;19923;-82
2022/06/09 04:01:45;;;;;;;;;;;15.10;90.70;;;;;;4917554;29;19929;-80
2022/06/09 04:04:12;;;;;;;;;;;15.10;83.40;;;;;;4938098;29;19922;-79
2022/06/09 04:06:39;;;;;;;;;;;15.30;72.80;;;;;;4921409;29;20402;-78
2022/06/09 04:09:06;;;;;;;;;;;15.50;66.40;;;;;;4936876;29;19927;-77
2022/06/09 04:11:32;;;;;;;;;;;15.80;62.40;;;;;;4922890;29;20287;-79
2022/06/09 04:13:59;;;;;;;;;;;16.10;60.00;;;;;;4921685;29;19923;-80
2022/06/09 04:16:28;;;;;;;;;;;16.30;59.80;;;;;;4931622;29;19922;-78
2022/06/09 04:18:59;;;;;;;;;;;16.50;60.10;;;;;;4925180;29;20350;-80
2022/06/09 04:21:27;;;;;;;;;;;16.60;58.10;;;;;;4924394;29;19930;-82
2022/06/09 04:23:55;;;;;;;;;;;16.70;57.70;;;;;;4920320;29;19927;-79
2022/06/09 04:26:23;;;;;;;;;;;16.80;57.60;;;;;;4919511;29;19939;-78
2022/06/09 04:28:50;;;;;;;;;;;16.90;57.30;;;;;;4930298;29;19923;-82
2022/06/09 04:31:17;;;;;;;;;;;16.90;57.60;;;;;;4915925;29;19930;-80
2022/06/09 04:33:44;;;;;;;;;;;17.00;57.60;;;;;;4922776;29;20307;-78
2022/06/09 04:36:12;;;;;;;;;;;17.00;56.70;;;;;;4929702;29;19923;-80
2022/06/09 04:38:39;;;;;;;;;;;17.10;56.90;;;;;;4921619;29;19923;-80
2022/06/09 04:41:10;;;;;;;;;;;17.10;56.30;;;;;;4927348;29;20331;-80
2022/06/09 04:43:38;;;;;;;;;;;17.20;56.40;;;;;;4913921;29;19923;-78
2022/06/09 04:46:05;;;;;;;;;;;17.30;55.20;;;;;;4930792;29;19926;-80
2022/06/09 04:48:33;;;;;;;;;;;17.30;55.60;;;;;;4915690;29;19923;-77
2022/06/09 04:51:00;;;;;;;;;;;17.40;56.10;;;;;;4927967;29;20021;-79
2022/06/09 04:53:27;;;;;;;;;;;17.50;56.10;;;;;;4933947;29;19929;-78
2022/06/09 04:55:54;;;;;;;;;;;17.50;55.60;;;;;;4932785;29;20368;-79
2022/06/09 04:58:21;;;;;;;;;;;17.60;55.60;;;;;;4918790;29;19927;-80
2022/06/09 05:00:48;;;;;;;;;;;17.70;55.60;;;;;;4922193;29;19926;-80
2022/06/09 05:03:14;;;;;;;;;;;17.70;54.90;;;;;;4927625;29;20303;-79
2022/06/09 05:05:43;;;;;;;;;;;17.90;54.80;;;;;;4920410;29;19923;-81
2022/06/09 05:08:14;;;;;;;;;;;17.90;54.00;;;;;;4920715;29;20013;-78
2022/06/09 05:10:42;;;;;;;;;;;18.00;52.30;;;;;;4922167;29;20372;-80
2022/06/09 05:13:09;;;;;;;;;;;18.20;51.30;;;;;;4904473;29;19990;-80
2022/06/09 05:15:37;;;;;;;;;;;18.30;51.00;;;;;;4933122;29;19938;-84
2022/06/09 05:18:04;;;;;;;;;;;18.40;50.70;;;;;;4915509;29;20367;-80
2022/06/09 05:20:31;;;;;;;;;;;18.60;48.70;;;;;;4924626;29;20033;-79
2022/06/09 05:22:58;;;;;;;;;;;18.70;49.00;;;;;;4915895;29;19923;-80
2022/06/09 05:25:25;;;;;;;;;;;18.90;49.00;;;;;;4922965;29;19931;-84
2022/06/09 05:27:52;;;;;;;;;;;19.00;45.60;;;;;;4926183;29;20017;-83
2022/06/09 05:30:20;;;;;;;;;;;19.20;46.40;;;;;;4923818;29;19923;-79
2022/06/09 05:32:48;;;;;;;;;;;19.30;46.70;;;;;;4925894;29;19923;-78
2022/06/09 05:35:16;;;;;;;;;;;19.50;45.10;;;;;;4926983;29;19965;-79
2022/06/09 05:46:00;;;;;;;;;;;19.80;44.30;;;;;;4933690;29;19927;-82
2022/06/09 05:48:27;;;;;;;;;;;19.80;43.20;;;;;;4922252;29;19958;-78
2022/06/09 05:50:54;;;;;;;;;;;19.90;43.30;;;;;;4927062;29;19923;-78
2022/06/09 05:53:21;;;;;;;;;;;20.00;43.40;;;;;;4922843;29;20351;-79
2022/06/09 05:55:48;;;;;;;;;;;20.10;41.90;;;;;;4921811;29;19922;-78
2022/06/09 05:58:15;;;;;;;;;;;20.20;41.60;;;;;;4927983;29;20388;-79
2022/06/09 06:00:42;;;;;;;;;;;20.30;40.40;;;;;;4928422;29;20372;-80
2022/06/09 06:03:12;;;;;;;;;;;20.40;39.60;;;;;;4928160;29;19929;-82
2022/06/09 06:08:25;;;;;;;;;;;20.50;39.80;;;;;;4929277;29;19930;-80
2022/06/09 06:10:53;;;;;;;;;;;20.60;39.60;;;;;;4911340;29;20451;-81
2022/06/09 06:13:20;;;;;;;;;;;20.60;40.80;;;;;;4914707;29;19923;-79
2022/06/09 06:15:46;;;;;;;;;;;20.60;40.40;;;;;;4918182;29;20405;-79
2022/06/09 06:18:13;;;;;;;;;;;20.70;39.20;;;;;;4914867;29;19929;-78
2022/06/09 06:20:40;;;;;;;;;;;20.80;39.70;;;;;;4916409;29;20014;-82
2022/06/09 06:23:07;;;;;;;;;;;20.80;39.30;;;;;;4908245;29;20273;-80
2022/06/09 06:25:35;;;;;;;;;;;20.90;41.70;;;;;;4917832;29;20356;-80
2022/06/09 06:28:02;;;;;;;;;;;20.90;44.90;;;;;;4914035;29;19923;-82
2022/06/09 06:30:28;;;;;;;;;;;20.90;45.30;;;;;;4906428;29;19930;-82
2022/06/09 06:32:55;;;;;;;;;;;21.00;50.80;;;;;;4917599;29;19931;-80
2022/06/09 06:35:22;;;;;;;;;;;21.00;42.80;;;;;;4912415;29;19923;-79
2022/06/09 06:37:49;;;;;;;;;;;21.00;39.20;;;;;;4909497;29;19927;-82
2022/06/09 06:40:16;;;;;;;;;;;21.20;40.00;;;;;;4915020;29;20311;-81
2022/06/09 06:42:43;;;;;;;;;;;21.30;49.30;;;;;;4910167;29;19958;-82
2022/06/09 06:45:11;;;;;;;;;;;21.30;54.30;;;;;;4909341;29;20006;-80
2022/06/09 06:47:41;;;;;;;;;;;21.20;56.70;;;;;;4927185;29;19923;-78
2022/06/09 06:50:09;;;;;;;;;;;21.20;48.50;;;;;;4903064;29;19923;-80
2022/06/09 06:52:36;;;;;;;;;;;21.30;38.60;;;;;;4912172;29;20021;-80
2022/06/09 06:55:04;;;;;;;;;;;21.50;37.60;;;;;;4907259;29;19930;-82
2022/06/09 06:57:31;;;;;;;;;;;21.60;37.70;;;;;;4916913;29;19977;-82
2022/06/09 06:59:58;;;;;;;;;;;21.80;37.20;;;;;;4904856;29;19958;-80
2022/06/09 07:02:25;;;;;;;;;;;21.90;36.20;;;;;;4917890;29;19933;-81
2022/06/09 07:05:13;;;;;;;;;;;22.20;32.30;;;;;;4916516;29;19930;-81
2022/06/09 07:07:40;;;;;;;;;;;22.30;32.20;;;;;;4919450;29;19923;-78
2022/06/09 07:10:07;;;;;;;;;;;22.50;31.10;;;;;;4916661;29;19923;-80
2022/06/09 07:12:34;;;;;;;;;;;22.70;32.90;;;;;;4907641;29;19929;-76
2022/06/09 07:15:01;;;;;;;;;;;22.80;30.90;;;;;;4909435;29;19927;-79
2022/06/09 07:17:28;;;;;;;;;;;22.90;31.20;;;;;;4912213;29;19926;-81
2022/06/09 07:19:55;;;;;;;;;;;23.10;29.20;;;;;;4910299;29;20009;-80
2022/06/09 07:22:22;;;;;;;;;;;23.20;29.10;;;;;;4904608;29;20402;-79
2022/06/09 07:24:49;;;;;;;;;;;23.30;28.40;;;;;;4920741;29;19923;-80
2022/06/09 07:27:15;;;;;;;;;;;23.40;28.00;;;;;;4905462;29;19931;-79
2022/06/09 07:29:42;;;;;;;;;;;23.50;27.80;;;;;;4915311;29;20006;-79
2022/06/09 07:32:09;;;;;;;;;;;23.70;29.10;;;;;;4913294;29;19923;-81
2022/06/09 07:34:36;;;;;;;;;;;23.80;28.90;;;;;;4927258;29;20001;-80
2022/06/09 07:37:03;;;;;;;;;;;23.90;27.90;;;;;;4905870;29;19929;-79
2022/06/09 07:39:30;;;;;;;;;;;24.00;28.60;;;;;;4911589;29;20475;-80
2022/06/09 07:41:57;;;;;;;;;;;24.10;28.80;;;;;;4922112;29;20022;-81
2022/06/09 07:44:24;;;;;;;;;;;24.20;27.60;;;;;;4920087;29;19957;-78
